This is the latest recevied weather packets stored in our database for station/object KD8BMB. If no packets are shown the sender has not sent any weather packets the latest 10 day(s).
| Time | Temp. | Humidity | Pressure | Rain* | Wind** | Luminosity | Snow |
|---|---|---|---|---|---|---|---|
| 1777736836 | 6.11° C | 57% | 1018.2 hPa | 0 mm | - | 960 W/m² | - |
| 1777736218 | 6.67° C | 55% | 1018.1 hPa | 0 mm | - | 198 W/m² | - |
| 1777735914 | 6.67° C | 53% | 1018.2 hPa | 0 mm | - | 220 W/m² | - |
| 1777735612 | 6.67° C | 54% | 1017.9 hPa | 0 mm | - | 876 W/m² | - |
| 1777735309 | 6.11° C | 53% | 1018.1 hPa | 0 mm | - | 888 W/m² | - |
| 1777735007 | 6.11° C | 55% | 1018.3 hPa | 0 mm | - | 224 W/m² | - |
| 1777734704 | 6.67° C | 53% | 1018.1 hPa | 0 mm | - | 342 W/m² | - |
| 1777734401 | 5.56° C | 54% | 1018.4 hPa | 0 mm | - | 584 W/m² | - |
| 1777734097 | 5.56° C | 56% | 1018.1 hPa | 0 mm | - | 183 W/m² | - |
| 1777733794 | 6.67° C | 55% | 1017.9 hPa | 0 mm | - | 292 W/m² | - |
| 1777733491 | 6.67° C | 54% | 1018.1 hPa | 0 mm | - | 835 W/m² | - |
| 1777733186 | 5.56° C | 54% | 1018.5 hPa | 0 mm | - | 779 W/m² | - |
| 1777732884 | 5.56° C | 55% | 1018.2 hPa | 0 mm | - | 209 W/m² | - |
| 1777732580 | 5.56° C | 56% | 1018.1 hPa | 0 mm | - | 150 W/m² | - |
| 1777732278 | 5.56° C | 57% | 1018.2 hPa | 0 mm | - | 715 W/m² | - |
| 1777731975 | 6.67° C | 56% | 1018.1 hPa | 0 mm | - | 268 W/m² | - |
| 1777731671 | 6.11° C | 57% | 1018.2 hPa | 0 mm | - | 347 W/m² | - |
| 1777731369 | 6.11° C | 57% | 1018 hPa | 0 mm | - | 694 W/m² | - |
| 1777731067 | 5.56° C | 59% | 1018.2 hPa | 0 mm | - | 659 W/m² | - |
| 1777730765 | 6.11° C | 56% | 1018.2 hPa | 0 mm | - | 638 W/m² | - |
| 1777730461 | 5.56° C | 58% | 1018.3 hPa | 0 mm | - | 638 W/m² | - |
| 1777730156 | 5° C | 59% | 1018.2 hPa | 0 mm | - | 611 W/m² | - |
| 1777729854 | 5° C | 58% | 1018.4 hPa | 0 mm | - | 547 W/m² | - |
| 1777729550 | 4.44° C | 61% | 1018.5 hPa | 0 mm | - | 515 W/m² | - |
| 1777729247 | 5° C | 60% | 1018.4 hPa | 0 mm | - | 476 W/m² | - |
* Rain latest hour (hover to see other rain measurements)
** Current wind speed in m/s (hover to see current wind gust speed)